^^
Weerstation Genderen Historische Gegevens
 
Daily Summary for June 15, 2024 Units:  Metric    English   Both
Daily Weekly Monthly Yearly
  Current: High: Low: Average:
Temperature: 15.2 °C 18.3 °C 12.9 °C 15.6 °C
Dew Point: 10.1 °C 12.9 °C 8.2 °C 10.2 °C
Humidity: 71.4% 94% 54.3% 72%
Wind Speed: 11.7km/h 28.7km/h 0km/h 12.5km/h
Wind Gust: 19.3km/h 33.8km/h - -
WindWSW - - WSW
Pressure: 1005.1 hPa 1005.1 hPa 998.4 hPa -
Precipitation: 0.6 mm      
 
 
Tabular Data for June 15, 2024
Time Temperature Dew Point Pressure Wind Wind Speed Wind Gust Humidity Rainfall Rate (Hourly) solar
00:04 13.9 °C 12.6 °C 1002.0 hPa WNW 0.4 km/h 3.2 km/h 92.2% 5.2 mm W/m2
00:09 13.9 °C 12.6 °C 1002.0 hPa Calm   1.6 km/h 92.2% 1.6 mm W/m2
00:14 13.9 °C 12.8 °C 1002.0 hPa South 2.7 km/h 2.4 km/h 93.2% 0.6 mm W/m2
00:19 13.9 °C 12.8 °C 1001.0 hPa SSE 3 km/h 3.2 km/h 93.1% 0.6 mm W/m2
00:24 13.9 °C 12.9 °C 1001.0 hPa ESE 5 km/h 3.5 km/h 93.3% 0.4 mm W/m2
00:29 13.9 °C 12.7 °C 1001.0 hPa ESE 5 km/h 6.4 km/h 92.4% 0.4 mm W/m2
00:33 13.8 °C 12.5 °C 1000.4 hPa ESE 5.2 km/h 6.4 km/h 92% 0.4 mm W/m2
01:35 13.9 °C 12.8 °C 1000.8 hPa ESE 1.6 km/h 3.2 km/h 93% 0.2 mm W/m2
01:40 13.9 °C 12.8 °C 1000.6 hPa SSE 1.6 km/h 3.2 km/h 93% 0.0 mm W/m2
01:50 13.8 °C 12.6 °C 1000.4 hPa ESE 3.2 km/h 6.4 km/h 92% 0.2 mm W/m2
02:00 13.7 °C 12.4 °C 1000.2 hPa ESE 3.2 km/h 8 km/h 92% 0.0 mm W/m2
02:10 13.7 °C 12.6 °C 1000.1 hPa ESE 1.6 km/h 4.8 km/h 93% 0.0 mm W/m2
02:15 13.6 °C 12.5 °C 1000.0 hPa ESE 3.2 km/h 8 km/h 93% 0.0 mm W/m2
02:25 13.6 °C 12.4 °C 1000.0 hPa SE 1.6 km/h 6.4 km/h 93% 0.0 mm W/m2
02:30 13.5 °C 12.4 °C 1000.0 hPa SE 1.6 km/h 6.4 km/h 93% 0.0 mm W/m2
02:35 13.5 °C 12.4 °C 999.9 hPa SSE 3.2 km/h 8 km/h 93% 0.0 mm W/m2
02:40 13.4 °C 12.3 °C 999.8 hPa Calm   3.2 km/h 93% 0.0 mm W/m2
02:45 13.4 °C 12.3 °C 999.7 hPa Calm     93% 0.0 mm W/m2
02:50 13.4 °C 12.3 °C 999.7 hPa Calm     93% 0.0 mm W/m2
03:00 13.3 °C 12.2 °C 999.6 hPa Calm     93% 0.0 mm W/m2
03:05 13.3 °C 12.2 °C 999.6 hPa Calm     93% 0.0 mm W/m2
03:10 13.4 °C 12.4 °C 999.6 hPa SSE 1.6 km/h 3.2 km/h 94% 0.0 mm W/m2
03:15 13.4 °C 12.4 °C 999.7 hPa SSW 3.2 km/h 4.8 km/h 94% 0.0 mm W/m2
03:20 13.4 °C 12.4 °C 999.6 hPa SW 1.6 km/h 6.4 km/h 94% 0.0 mm W/m2
03:25 13.4 °C 12.4 °C 999.6 hPa SW 3.2 km/h 4.8 km/h 94% 0.0 mm W/m2
03:30 13.4 °C 12.5 °C 999.6 hPa SW 3.2 km/h 4.8 km/h 94% 0.0 mm W/m2
03:35 13.4 °C 12.5 °C 999.5 hPa Calm   4.8 km/h 94% 0.0 mm W/m2
03:50 13.5 °C 12.6 °C 999.3 hPa SW 1.6 km/h 6.4 km/h 94% 0.0 mm W/m2
03:55 13.5 °C 12.6 °C 999.3 hPa SW 1.6 km/h 3.2 km/h 94% 0.0 mm W/m2
04:15 13.6 °C 12.4 °C 999.4 hPa SSW 1.6 km/h 3.2 km/h 93% 0.0 mm W/m2
04:20 13.5 °C 12.4 °C 999.2 hPa SW 1.6 km/h 6.4 km/h 93% 0.0 mm W/m2
04:25 13.5 °C 12.4 °C 999.0 hPa WSW 1.6 km/h 3.2 km/h 93% 0.0 mm W/m2
04:30 13.5 °C 12.4 °C 999.0 hPa WSW 1.6 km/h 3.2 km/h 93% 0.0 mm W/m2
04:40 13.5 °C 12.4 °C 998.8 hPa WSW 1.6 km/h 6.4 km/h 93% 0.0 mm W/m2
04:45 13.5 °C 12.4 °C 998.8 hPa WSW 1.6 km/h 4.8 km/h 93% 0.0 mm W/m2
04:55 13.4 °C 12.3 °C 998.9 hPa SW 3.2 km/h 4.8 km/h 93% 0.0 mm W/m2
05:00 13.4 °C 12.3 °C 998.9 hPa SW 3.2 km/h 3.2 km/h 93% 0.0 mm W/m2
05:20 13.4 °C 12.3 °C 998.8 hPa SW 1.6 km/h 6.4 km/h 93% 0.0 mm W/m2
05:25 13.4 °C 12.3 °C 998.8 hPa SW 3.2 km/h 6.4 km/h 93% 0.0 mm W/m2
05:45 13.4 °C 12.3 °C 998.7 hPa SW 3.2 km/h 6.4 km/h 93% 0.0 mm W/m2
05:50 13.4 °C 12.3 °C 998.7 hPa SW 1.6 km/h 8 km/h 93% 0.0 mm W/m2
06:00 13.4 °C 12.3 °C 998.7 hPa SW 3.2 km/h 6.4 km/h 93% 0.0 mm W/m2
06:10 13.4 °C 12.3 °C 998.5 hPa SW 3.2 km/h 6.4 km/h 93% 0.0 mm W/m2
06:15 13.4 °C 12.3 °C 998.4 hPa SW 3.2 km/h 8 km/h 93% 0.0 mm W/m2
06:40 13.4 °C 12.1 °C 998.6 hPa WSW 4.8 km/h 9.7 km/h 92% 0.0 mm W/m2
06:45 13.3 °C 12.1 °C 998.6 hPa WSW 3.2 km/h 8 km/h 92% 0.0 mm W/m2
06:55 13.3 °C 11.9 °C 998.6 hPa WSW 3.2 km/h 8 km/h 91% 0.0 mm W/m2
07:15 13.1 °C 11.7 °C 998.4 hPa WSW 3.2 km/h 8 km/h 91% 0.2 mm W/m2
07:20 13.1 °C 11.6 °C 998.4 hPa WSW 4.8 km/h 8 km/h 91% 0.0 mm W/m2
07:35 13.1 °C 11.7 °C 998.6 hPa WSW 3.2 km/h 9.7 km/h 91% 0.0 mm W/m2
07:50 13.1 °C 11.4 °C 998.9 hPa WSW 4.8 km/h 12.9 km/h 90% 0.0 mm W/m2
08:10 13 °C 11.2 °C 999.0 hPa WSW 4.8 km/h 11.3 km/h 89% 0.0 mm W/m2
08:15 13 °C 11.2 °C 999.0 hPa WSW 9.7 km/h 16.1 km/h 89% 0.0 mm W/m2
08:20 13 °C 11.2 °C 999.0 hPa WSW 4.8 km/h 14.5 km/h 89% 0.0 mm W/m2
08:25 13 °C 11.2 °C 999.1 hPa West 8 km/h 11.3 km/h 89% 0.0 mm W/m2
08:35 13.1 °C 10.8 °C 999.3 hPa West 11.3 km/h 16.1 km/h 86% 0.0 mm W/m2
08:44 12.9 °C 9.7 °C 1000.6 hPa WSW 13.5 km/h 25.7 km/h 81% 0.0 mm W/m2
08:49 12.9 °C 9.6 °C 1000.7 hPa West 16.8 km/h 25.7 km/h 80.5% 0.0 mm W/m2
08:54 13 °C 9.6 °C 1001.0 hPa West 17.3 km/h 20.9 km/h 79.9% 0.0 mm W/m2
08:59 13.1 °C 9.8 °C 1001.0 hPa West 15.5 km/h 22.5 km/h 80.3% 0.0 mm W/m2
09:04 13.3 °C 9.8 °C 1002.0 hPa West 16.1 km/h 19.3 km/h 79.5% 0.0 mm W/m2
09:09 13.6 °C 9.9 °C 1002.0 hPa West 21.2 km/h 19.3 km/h 78.4% 0.0 mm W/m2
09:14 13.7 °C 10 °C 1002.0 hPa West 18.1 km/h 29 km/h 78.1% 0.0 mm W/m2
09:19 13.8 °C 10 °C 1002.0 hPa West 16.2 km/h 20.9 km/h 77.9% 0.0 mm W/m2
09:24 14 °C 10.2 °C 1002.0 hPa West 13 km/h 20.9 km/h 77.7% 0.0 mm W/m2
09:29 14.2 °C 10.1 °C 1002.0 hPa West 14.7 km/h 14.5 km/h 76.5% 0.0 mm W/m2
09:34 14.1 °C 10 °C 1001.3 hPa West 15.1 km/h 16.1 km/h 76.5% 0.0 mm W/m2
09:39 13.8 °C 9.7 °C 1002.0 hPa West 18.2 km/h 19.3 km/h 76.1% 0.0 mm W/m2
09:44 13.7 °C 9.6 °C 1002.0 hPa West 20.9 km/h 20.9 km/h 76.1% 0.0 mm W/m2
09:49 14 °C 9.9 °C 1002.0 hPa West 15.1 km/h 25.7 km/h 76.1% 0.0 mm W/m2
09:54 14.2 °C 9.7 °C 1002.0 hPa West 19.6 km/h 20.9 km/h 74.3% 0.0 mm W/m2
09:59 14.3 °C 9.6 °C 1002.0 hPa West 19.9 km/h 24.1 km/h 73.6% 0.0 mm W/m2
10:04 14.2 °C 9.8 °C 1002.0 hPa West 16.3 km/h 25.7 km/h 75% 0.0 mm W/m2
10:09 14.3 °C 9.8 °C 1002.0 hPa West 19.1 km/h 19.3 km/h 74.4% 0.0 mm W/m2
10:14 14.6 °C 9.7 °C 1002.0 hPa WSW 17.2 km/h 25.7 km/h 72.6% 0.0 mm W/m2
10:19 14.5 °C 9.7 °C 1002.0 hPa West 17.6 km/h 22.5 km/h 72.9% 0.0 mm W/m2
10:24 14.4 °C 9.7 °C 1002.0 hPa West 17.2 km/h 22.5 km/h 73.6% 0.0 mm W/m2
10:29 14.6 °C 9.7 °C 1002.0 hPa West 18.2 km/h 19.3 km/h 72.6% 0.0 mm W/m2
10:34 14.8 °C 9.8 °C 1003.0 hPa West 17.9 km/h 22.5 km/h 71.8% 0.0 mm W/m2
10:39 15 °C 9.7 °C 1003.0 hPa West 18.8 km/h 19.3 km/h 70.9% 0.0 mm W/m2
10:44 15.2 °C 9.5 °C 1003.0 hPa West 23.5 km/h 25.7 km/h 68.9% 0.0 mm W/m2
10:49 15.3 °C 9.7 °C 1003.0 hPa West 23 km/h 32.2 km/h 69.5% 0.0 mm W/m2
10:54 15.6 °C 9.7 °C 1002.0 hPa West 23.5 km/h 29 km/h 68.1% 0.0 mm W/m2
10:59 15.4 °C 9.4 °C 1003.0 hPa West 19.8 km/h 32.2 km/h 67.5% 0.0 mm W/m2
11:04 15.4 °C 9.5 °C 1003.0 hPa West 19.2 km/h 25.7 km/h 67.9% 0.0 mm W/m2
11:09 15.5 °C 9.7 °C 1003.0 hPa WSW 15.2 km/h 22.5 km/h 68.3% 0.0 mm W/m2
11:14 15.2 °C 9.3 °C 1003.0 hPa West 16.9 km/h 16.1 km/h 68.1% 0.0 mm W/m2
11:19 15.2 °C 9.4 °C 1003.0 hPa West 21.4 km/h 22.5 km/h 68.3% 0.0 mm W/m2
11:24 15.4 °C 9.4 °C 1003.0 hPa WSW 20.4 km/h 25.7 km/h 67.9% 0.0 mm W/m2
11:29 15.1 °C 9.2 °C 1003.0 hPa West 21 km/h 24.1 km/h 67.6% 0.0 mm W/m2
11:34 15 °C 9.1 °C 1003.0 hPa West 28.7 km/h 29 km/h 67.9% 0.0 mm W/m2
11:39 15.2 °C 9.2 °C 1003.0 hPa West 22.3 km/h 33.8 km/h 67.8% 0.0 mm W/m2
11:44 15.3 °C 9.3 °C 1002.3 hPa West 19.3 km/h 24.1 km/h 67.5% 0.0 mm W/m2
11:49 15.2 °C 9.6 °C 1003.0 hPa WSW 17.2 km/h 22.5 km/h 69% 0.0 mm W/m2
11:54 15.2 °C 10 °C 1003.0 hPa WSW 19 km/h 19.3 km/h 70.9% 0.0 mm W/m2
11:59 15.4 °C 9.7 °C 1002.5 hPa West 16.5 km/h 24.1 km/h 69% 0.0 mm W/m2
12:04 15.7 °C 9.9 °C 1003.0 hPa West 17.8 km/h 19.3 km/h 68.4% 0.0 mm W/m2
12:09 15.6 °C 9.5 °C 1003.0 hPa West 19.1 km/h 19.3 km/h 67.1% 0.0 mm W/m2
12:14 15.5 °C 9.5 °C 1003.0 hPa West 19.7 km/h 22.5 km/h 67.5% 0.0 mm W/m2
12:19 16.1 °C 9.9 °C 1003.0 hPa West 19.3 km/h 25.7 km/h 67% 0.0 mm W/m2
12:24 16.4 °C 9.8 °C 1002.6 hPa West 21.1 km/h 20.9 km/h 65% 0.0 mm W/m2
12:29 16.6 °C 9.9 °C 1003.0 hPa West 17 km/h 25.7 km/h 64.6% 0.0 mm W/m2
12:34 16.7 °C 9.6 °C 1003.0 hPa West 15.7 km/h 19.3 km/h 62.9% 0.0 mm W/m2
12:39 16.8 °C 10.1 °C 1003.0 hPa West 15.2 km/h 16.1 km/h 64.5% 0.0 mm W/m2
12:44 16.9 °C 9.8 °C 1003.0 hPa West 18.1 km/h 19.3 km/h 63% 0.0 mm W/m2
12:49 16.5 °C 9.8 °C 1002.8 hPa West 13 km/h 19.3 km/h 64.7% 0.0 mm W/m2
12:54 16.5 °C 9.3 °C 1003.0 hPa West 22.2 km/h 18.3 km/h 62.9% 0.0 mm W/m2
12:59 17 °C 9.8 °C 1002.8 hPa West 17 km/h 25.7 km/h 62.6% 0.0 mm W/m2
13:04 17.6 °C 9.6 °C 1004.1 hPa West 19.9 km/h 19.3 km/h 59.6% 0.0 mm W/m2
13:09 17.8 °C 9.3 °C 1004.1 hPa West 19.2 km/h 29 km/h 57.5% 0.0 mm W/m2
13:14 17.8 °C 9.6 °C 1004.1 hPa West 16.3 km/h 22.5 km/h 58.9% 0.0 mm W/m2
13:19 17.5 °C 9.3 °C 1004.1 hPa West 21 km/h 22.5 km/h 58.7% 0.0 mm W/m2
13:24 17.7 °C 9.4 °C 1004.1 hPa WSW 18.2 km/h 24.1 km/h 58.3% 0.0 mm W/m2
13:29 17.9 °C 9.6 °C 1002.9 hPa West 18.9 km/h 20.9 km/h 58.2% 0.0 mm W/m2
13:34 17.6 °C 9.6 °C 1004.1 hPa West 15.1 km/h 19.3 km/h 59.5% 0.0 mm W/m2
13:39 17.6 °C 10 °C 1004.1 hPa West 16.4 km/h 16.9 km/h 61.1% 0.0 mm W/m2
13:44 17.8 °C 9.9 °C 1004.1 hPa WSW 15.9 km/h 24.1 km/h 59.9% 0.0 mm W/m2
13:49 17.9 °C 9.9 °C 1003.1 hPa WSW 15.7 km/h 16.1 km/h 59.2% 0.0 mm W/m2
13:54 18.1 °C 9.5 °C 1004.1 hPa WSW 18.5 km/h 22.5 km/h 57.3% 0.0 mm W/m2
13:59 18.3 °C 9.6 °C 1004.1 hPa West 18.2 km/h 19.3 km/h 57% 0.0 mm W/m2
14:04 18.3 °C 9.5 °C 1004.1 hPa West 16.7 km/h 20.9 km/h 56.7% 0.0 mm W/m2
14:09 18.2 °C 9.3 °C 1004.1 hPa WSW 17.6 km/h 24.1 km/h 56.1% 0.0 mm W/m2
14:14 17.9 °C 9.2 °C 1004.1 hPa WSW 16.4 km/h 20.9 km/h 56.8% 0.0 mm W/m2
14:19 17.5 °C 8.9 °C 1004.1 hPa WSW 14.9 km/h 19.3 km/h 57% 0.0 mm W/m2
14:24 17.4 °C 9.4 °C 1004.1 hPa West 13.6 km/h 16.1 km/h 59.2% 0.0 mm W/m2
14:29 17.3 °C 9.3 °C 1004.1 hPa WSW 13.4 km/h 19.3 km/h 59.5% 0.0 mm W/m2
14:34 17.3 °C 9.4 °C 1004.1 hPa WSW 14.7 km/h 19.3 km/h 59.6% 0.0 mm W/m2
14:39 17.3 °C 9.3 °C 1004.1 hPa WSW 13.7 km/h 20.9 km/h 59.3% 0.0 mm W/m2
14:44 17.3 °C 9 °C 1004.1 hPa WSW 16.3 km/h 16.1 km/h 58.3% 0.0 mm W/m2
14:49 17.2 °C 9.1 °C 1004.1 hPa WSW 12.7 km/h 19.3 km/h 58.7% 0.0 mm W/m2
14:54 17.3 °C 9 °C 1004.1 hPa WSW 17.6 km/h 20.9 km/h 58.3% 0.0 mm W/m2
14:59 17.1 °C 8.9 °C 1004.1 hPa WSW 13.5 km/h 20.9 km/h 58.3% 0.0 mm W/m2
15:04 17 °C 8.7 °C 1003.3 hPa WSW 15.6 km/h 16.1 km/h 58.3% 0.0 mm W/m2
15:09 17.1 °C 8.8 °C 1004.1 hPa WSW 12.6 km/h 17.7 km/h 58.1% 0.0 mm W/m2
15:14 17.6 °C 9.4 °C 1004.1 hPa WSW 14 km/h 12.9 km/h 58.5% 0.0 mm W/m2
15:19 17.9 °C 8.9 °C 1004.1 hPa WSW 18.3 km/h 16.1 km/h 55.4% 0.0 mm W/m2
15:24 17.9 °C 8.9 °C 1004.1 hPa WSW 15.1 km/h 22.5 km/h 55.9% 0.0 mm W/m2
15:29 18.1 °C 9.4 °C 1004.1 hPa WSW 13.8 km/h 19.3 km/h 57.1% 0.0 mm W/m2
15:34 18.2 °C 9.2 °C 1004.1 hPa WSW 17.2 km/h 19.3 km/h 55.5% 0.0 mm W/m2
15:39 18 °C 8.8 °C 1004.1 hPa WSW 14 km/h 19.3 km/h 54.8% 0.0 mm W/m2
15:44 17.7 °C 8.7 °C 1004.1 hPa WSW 15.2 km/h 16.1 km/h 55.8% 0.0 mm W/m2
15:49 17.5 °C 8.9 °C 1004.1 hPa WSW 12.7 km/h 19.3 km/h 57.1% 0.0 mm W/m2
15:54 17.5 °C 8.7 °C 1004.1 hPa WSW 17.4 km/h 16.1 km/h 56.4% 0.0 mm W/m2
15:59 17.4 °C 8.9 °C 1004.1 hPa WSW 14.6 km/h 20.9 km/h 57.1% 0.0 mm W/m2
16:04 17.4 °C 9.1 °C 1004.1 hPa WSW 12.3 km/h 16.1 km/h 57.9% 0.0 mm W/m2
16:09 17.6 °C 9 °C 1004.1 hPa WSW 15.7 km/h 14.5 km/h 57.2% 0.0 mm W/m2
16:14 17.6 °C 9 °C 1004.1 hPa WSW 16.3 km/h 19.3 km/h 57% 0.0 mm W/m2
16:19 17.6 °C 8.9 °C 1004.1 hPa WSW 15.9 km/h 19.3 km/h 56.7% 0.0 mm W/m2
16:24 17.6 °C 9.3 °C 1004.1 hPa WSW 12.5 km/h 20.9 km/h 58.3% 0.0 mm W/m2
16:29 17.6 °C 9.1 °C 1004.1 hPa WSW 17.9 km/h 14.5 km/h 57.3% 0.0 mm W/m2
16:34 17.6 °C 9 °C 1004.1 hPa WSW 13.8 km/h 24.1 km/h 57.2% 0.0 mm W/m2
16:39 17.7 °C 9 °C 1004.1 hPa WSW 15.3 km/h 14.5 km/h 56.9% 0.0 mm W/m2
16:44 17.7 °C 9.1 °C 1004.1 hPa WSW 16.8 km/h 20.9 km/h 57.2% 0.0 mm W/m2
16:49 17.7 °C 9 °C 1003.1 hPa WSW 13.6 km/h 19.3 km/h 56.7% 0.0 mm W/m2
16:54 17.7 °C 9.1 °C 1004.1 hPa SW 13.8 km/h 12.9 km/h 57.1% 0.0 mm W/m2
16:59 17.8 °C 9 °C 1004.1 hPa SW 18.1 km/h 19.3 km/h 56.6% 0.0 mm W/m2
17:04 18 °C 9.1 °C 1004.1 hPa WSW 14.2 km/h 22.5 km/h 55.9% 0.0 mm W/m2
17:09 18.1 °C 9 °C 1004.1 hPa SW 14.7 km/h 19.3 km/h 55.3% 0.0 mm W/m2
17:14 18.1 °C 9.1 °C 1004.1 hPa WSW 14.7 km/h 19.3 km/h 55.8% 0.0 mm W/m2
17:19 18 °C 9 °C 1004.1 hPa WSW 14.4 km/h 19.3 km/h 55.7% 0.0 mm W/m2
17:24 18 °C 8.9 °C 1004.1 hPa WSW 14 km/h 16.1 km/h 55.4% 0.0 mm W/m2
17:29 17.9 °C 8.7 °C 1002.9 hPa WSW 15.6 km/h 19.3 km/h 54.9% 0.0 mm W/m2
17:34 17.9 °C 8.7 °C 1004.1 hPa SW 16.1 km/h 19.3 km/h 55% 0.0 mm W/m2
17:39 17.8 °C 8.4 °C 1004.1 hPa WSW 15.6 km/h 24.1 km/h 54.3% 0.0 mm W/m2
17:44 17.7 °C 8.4 °C 1004.1 hPa WSW 14.8 km/h 16.1 km/h 54.6% 0.0 mm W/m2
17:49 17.7 °C 8.6 °C 1004.1 hPa WSW 13.3 km/h 16.1 km/h 55.3% 0.0 mm W/m2
17:54 17.6 °C 8.5 °C 1004.1 hPa WSW 13.8 km/h 19.3 km/h 55% 0.0 mm W/m2
17:59 17.6 °C 8.4 °C 1004.1 hPa WSW 14.3 km/h 19.3 km/h 54.8% 0.0 mm W/m2
18:04 17.5 °C 8.3 °C 1004.1 hPa WSW 15.3 km/h 19.3 km/h 54.6% 0.0 mm W/m2
18:09 17.4 °C 8.3 °C 1004.1 hPa WSW 14.6 km/h 16.1 km/h 54.9% 0.0 mm W/m2
18:14 17.4 °C 8.2 °C 1004.1 hPa WSW 18 km/h 16.1 km/h 54.6% 0.0 mm W/m2
18:19 17.5 °C 8.3 °C 1004.1 hPa WSW 17.4 km/h 24.1 km/h 54.8% 0.0 mm W/m2
18:24 17.5 °C 8.3 °C 1004.1 hPa WSW 18.6 km/h 20.9 km/h 55% 0.0 mm W/m2
18:29 17.4 °C 8.5 °C 1004.1 hPa WSW 14.7 km/h 20.9 km/h 56% 0.0 mm W/m2
18:34 17.3 °C 8.6 °C 1004.1 hPa WSW 13.1 km/h 19.3 km/h 56.5% 0.0 mm W/m2
18:39 17.3 °C 8.7 °C 1004.1 hPa WSW 15.4 km/h 14.5 km/h 57.3% 0.0 mm W/m2
18:44 17.2 °C 8.9 °C 1004.1 hPa WSW 12.4 km/h 19.3 km/h 58.1% 0.0 mm W/m2
18:49 17.1 °C 8.8 °C 1004.1 hPa WSW 15.8 km/h 16.1 km/h 58.2% 0.0 mm W/m2
18:54 17 °C 8.9 °C 1004.1 hPa WSW 14.4 km/h 19.3 km/h 58.8% 0.0 mm W/m2
18:59 16.9 °C 9 °C 1004.1 hPa WSW 14.5 km/h 16.1 km/h 59.6% 0.0 mm W/m2
19:04 16.8 °C 9.4 °C 1003.5 hPa WSW 11.8 km/h 19.3 km/h 62% 0.0 mm W/m2
19:09 16.5 °C 9.5 °C 1004.1 hPa WSW 15.6 km/h 14.5 km/h 63.3% 0.0 mm W/m2
19:14 16.2 °C 9.8 °C 1004.1 hPa WSW 10.7 km/h 19.3 km/h 65.8% 0.0 mm W/m2
19:19 16 °C 9.7 °C 1004.1 hPa WSW 14.5 km/h 19.3 km/h 66% 0.0 mm W/m2
19:24 15.8 °C 9.8 °C 1004.1 hPa WSW 16.1 km/h 16.1 km/h 67.3% 0.0 mm W/m2
19:29 15.6 °C 9.7 °C 1004.1 hPa WSW 16 km/h 20.9 km/h 67.9% 0.0 mm W/m2
19:34 15.5 °C 10.1 °C 1004.1 hPa WSW 13.4 km/h 19.3 km/h 69.9% 0.0 mm W/m2
19:39 15.4 °C 10 °C 1003.9 hPa West 11.7 km/h 14.5 km/h 70% 0.0 mm W/m2
19:44 15.3 °C 9.9 °C 1004.1 hPa WSW 14 km/h 17.7 km/h 70% 0.0 mm W/m2
19:49 15.2 °C 10.1 °C 1005.1 hPa WSW 11.7 km/h 19.3 km/h 71.4% 0.0 mm W/m2
Genderen, Netherlands, EU
Compliments of Weather Underground - 2 mb